Terminal Aerodrome Forecast
Issued by NWS Springfield, MO

Home | Current Version | Previous Version | Text Only | Print | Product List | Glossary On
Versions: 1 2 3 4 5 6 7 8 9 10 11 12 13 14 15 16 17 18 19 20 21
000
FTUS43 KSGF 221628 AAC
TAFSGF
TAF AMD
KSGF 221628Z 2216/2312 07009KT P6SM SCT009 OVC035
      TEMPO 2216/2218 6SM -RA BR OVC009
     FM221800 04011KT 5SM -SHRA OVC015
     FM230000 02011KT 4SM -SHRA OVC010=

USA.gov is the U.S. government's official web portal to all federal, state and local government web resources and services.